sensor_id;sensor_type;location;lat;lon;timestamp;P1;durP1;ratioP1;P2;durP2;ratioP2
17566;SDS011;8901;52.088;5.084;2023-03-25T00:02:13;14.30;;;12.43;;
17566;SDS011;8901;52.088;5.084;2023-03-25T00:04:40;14.90;;;13.33;;
17566;SDS011;8901;52.088;5.084;2023-03-25T00:07:08;17.20;;;14.50;;
17566;SDS011;8901;52.088;5.084;2023-03-25T00:09:35;14.93;;;13.57;;
17566;SDS011;8901;52.088;5.084;2023-03-25T00:12:02;16.17;;;14.43;;
17566;SDS011;8901;52.088;5.084;2023-03-25T00:14:31;17.70;;;14.47;;
17566;SDS011;8901;52.088;5.084;2023-03-25T00:16:58;15.10;;;13.60;;
17566;SDS011;8901;52.088;5.084;2023-03-25T00:19:25;16.73;;;13.53;;
17566;SDS011;8901;52.088;5.084;2023-03-25T00:21:53;16.53;;;14.03;;
17566;SDS011;8901;52.088;5.084;2023-03-25T00:24:21;14.17;;;12.77;;
17566;SDS011;8901;52.088;5.084;2023-03-25T00:26:48;16.43;;;13.77;;
17566;SDS011;8901;52.088;5.084;2023-03-25T00:29:15;15.30;;;13.77;;
17566;SDS011;8901;52.088;5.084;2023-03-25T00:31:44;16.20;;;14.10;;
17566;SDS011;8901;52.088;5.084;2023-03-25T00:34:11;15.27;;;13.90;;
17566;SDS011;8901;52.088;5.084;2023-03-25T00:36:39;16.10;;;13.97;;
17566;SDS011;8901;52.088;5.084;2023-03-25T00:39:07;20.40;;;14.37;;
17566;SDS011;8901;52.088;5.084;2023-03-25T00:41:35;14.43;;;12.83;;
17566;SDS011;8901;52.088;5.084;2023-03-25T00:44:06;14.97;;;13.30;;
17566;SDS011;8901;52.088;5.084;2023-03-25T00:46:33;14.23;;;12.83;;
17566;SDS011;8901;52.088;5.084;2023-03-25T00:49:02;14.37;;;12.63;;
17566;SDS011;8901;52.088;5.084;2023-03-25T00:51:29;14.97;;;13.00;;
17566;SDS011;8901;52.088;5.084;2023-03-25T00:53:58;14.87;;;13.43;;
17566;SDS011;8901;52.088;5.084;2023-03-25T00:56:26;15.80;;;13.90;;
17566;SDS011;8901;52.088;5.084;2023-03-25T00:58:53;17.67;;;14.47;;
17566;SDS011;8901;52.088;5.084;2023-03-25T01:01:22;17.60;;;14.30;;
17566;SDS011;8901;52.088;5.084;2023-03-25T01:03:51;15.40;;;13.17;;
17566;SDS011;8901;52.088;5.084;2023-03-25T01:06:23;16.23;;;13.80;;
17566;SDS011;8901;52.088;5.084;2023-03-25T01:08:53;15.90;;;13.77;;
17566;SDS011;8901;52.088;5.084;2023-03-25T01:11:22;14.13;;;12.67;;
17566;SDS011;8901;52.088;5.084;2023-03-25T01:13:49;15.03;;;13.70;;
17566;SDS011;8901;52.088;5.084;2023-03-25T01:16:17;18.00;;;14.20;;
17566;SDS011;8901;52.088;5.084;2023-03-25T01:18:44;15.87;;;13.87;;
17566;SDS011;8901;52.088;5.084;2023-03-25T01:21:11;16.97;;;15.10;;
17566;SDS011;8901;52.088;5.084;2023-03-25T01:23:40;15.33;;;13.87;;
17566;SDS011;8901;52.088;5.084;2023-03-25T01:26:07;15.30;;;13.80;;
17566;SDS011;8901;52.088;5.084;2023-03-25T01:28:34;15.20;;;13.80;;
17566;SDS011;8901;52.088;5.084;2023-03-25T01:31:04;15.27;;;13.60;;
17566;SDS011;8901;52.088;5.084;2023-03-25T01:33:33;16.33;;;13.90;;
17566;SDS011;8901;52.088;5.084;2023-03-25T01:36:00;17.23;;;14.67;;
17566;SDS011;8901;52.088;5.084;2023-03-25T01:38:28;14.00;;;12.60;;
17566;SDS011;8901;52.088;5.084;2023-03-25T01:40:56;14.50;;;13.23;;
17566;SDS011;8901;52.088;5.084;2023-03-25T01:46:01;19.37;;;12.97;;
17566;SDS011;8901;52.088;5.084;2023-03-25T01:51:34;15.20;;;12.40;;
17566;SDS011;8901;52.088;5.084;2023-03-25T01:57:07;13.87;;;12.57;;
17566;SDS011;8901;52.088;5.084;2023-03-25T01:59:37;17.43;;;14.00;;
17566;SDS011;8901;52.088;5.084;2023-03-25T02:02:22;16.30;;;13.83;;
17566;SDS011;8901;52.088;5.084;2023-03-25T02:05:07;17.07;;;12.60;;
17566;SDS011;8901;52.088;5.084;2023-03-25T02:39:43;14.33;;;12.53;;
17566;SDS011;8901;52.088;5.084;2023-03-25T02:42:13;12.97;;;11.83;;
17566;SDS011;8901;52.088;5.084;2023-03-25T02:44:43;15.13;;;12.80;;
17566;SDS011;8901;52.088;5.084;2023-03-25T02:47:15;13.67;;;11.97;;
17566;SDS011;8901;52.088;5.084;2023-03-25T02:49:44;14.73;;;13.13;;
17566;SDS011;8901;52.088;5.084;2023-03-25T02:52:13;12.90;;;11.50;;
17566;SDS011;8901;52.088;5.084;2023-03-25T02:54:43;13.83;;;11.77;;
17566;SDS011;8901;52.088;5.084;2023-03-25T02:57:12;14.17;;;11.80;;
17566;SDS011;8901;52.088;5.084;2023-03-25T02:59:41;13.63;;;12.23;;
17566;SDS011;8901;52.088;5.084;2023-03-25T03:02:10;13.40;;;11.90;;
17566;SDS011;8901;52.088;5.084;2023-03-25T03:04:44;14.17;;;12.43;;
17566;SDS011;8901;52.088;5.084;2023-03-25T03:07:12;15.03;;;12.20;;
17566;SDS011;8901;52.088;5.084;2023-03-25T03:09:43;20.10;;;12.80;;
17566;SDS011;8901;52.088;5.084;2023-03-25T03:12:14;12.93;;;10.97;;
17566;SDS011;8901;52.088;5.084;2023-03-25T03:15:00;16.17;;;10.93;;
17566;SDS011;8901;52.088;5.084;2023-03-25T03:17:32;17.57;;;11.03;;
17566;SDS011;8901;52.088;5.084;2023-03-25T03:20:05;12.47;;;11.00;;
17566;SDS011;8901;52.088;5.084;2023-03-25T03:22:38;14.53;;;11.07;;
17566;SDS011;8901;52.088;5.084;2023-03-25T03:25:11;13.87;;;11.20;;
17566;SDS011;8901;52.088;5.084;2023-03-25T03:27:42;14.63;;;11.83;;
17566;SDS011;8901;52.088;5.084;2023-03-25T03:30:11;11.97;;;10.87;;
17566;SDS011;8901;52.088;5.084;2023-03-25T03:32:40;16.07;;;12.10;;
17566;SDS011;8901;52.088;5.084;2023-03-25T03:38:13;14.73;;;10.70;;
17566;SDS011;8901;52.088;5.084;2023-03-25T03:40:42;15.60;;;11.10;;
17566;SDS011;8901;52.088;5.084;2023-03-25T03:43:12;15.63;;;11.73;;
17566;SDS011;8901;52.088;5.084;2023-03-25T03:45:41;12.80;;;10.53;;
17566;SDS011;8901;52.088;5.084;2023-03-25T03:48:11;11.57;;;10.33;;
17566;SDS011;8901;52.088;5.084;2023-03-25T03:50:41;19.90;;;11.73;;
17566;SDS011;8901;52.088;5.084;2023-03-25T03:53:11;14.17;;;10.73;;
17566;SDS011;8901;52.088;5.084;2023-03-25T03:55:43;13.63;;;10.60;;
17566;SDS011;8901;52.088;5.084;2023-03-25T03:58:16;13.20;;;11.83;;
17566;SDS011;8901;52.088;5.084;2023-03-25T04:00:47;17.17;;;11.97;;
17566;SDS011;8901;52.088;5.084;2023-03-25T04:03:17;17.57;;;12.13;;
17566;SDS011;8901;52.088;5.084;2023-03-25T04:05:50;13.27;;;10.53;;
17566;SDS011;8901;52.088;5.084;2023-03-25T04:08:20;13.30;;;10.53;;
17566;SDS011;8901;52.088;5.084;2023-03-25T04:10:55;12.27;;;9.13;;
17566;SDS011;8901;52.088;5.084;2023-03-25T04:13:24;13.90;;;9.50;;
17566;SDS011;8901;52.088;5.084;2023-03-25T04:15:55;13.60;;;10.30;;
17566;SDS011;8901;52.088;5.084;2023-03-25T04:18:24;13.73;;;10.73;;
17566;SDS011;8901;52.088;5.084;2023-03-25T04:20:52;13.10;;;9.70;;
17566;SDS011;8901;52.088;5.084;2023-03-25T04:23:20;14.57;;;10.90;;
17566;SDS011;8901;52.088;5.084;2023-03-25T04:25:47;16.27;;;10.80;;
17566;SDS011;8901;52.088;5.084;2023-03-25T04:28:18;13.17;;;10.93;;
17566;SDS011;8901;52.088;5.084;2023-03-25T04:30:48;15.43;;;10.60;;
17566;SDS011;8901;52.088;5.084;2023-03-25T04:33:20;15.50;;;10.90;;
17566;SDS011;8901;52.088;5.084;2023-03-25T04:35:47;14.67;;;10.97;;
17566;SDS011;8901;52.088;5.084;2023-03-25T04:38:15;17.57;;;11.13;;
17566;SDS011;8901;52.088;5.084;2023-03-25T04:40:42;14.40;;;10.53;;
17566;SDS011;8901;52.088;5.084;2023-03-25T04:43:11;18.50;;;11.10;;
17566;SDS011;8901;52.088;5.084;2023-03-25T04:45:39;13.63;;;9.73;;
17566;SDS011;8901;52.088;5.084;2023-03-25T04:48:15;14.27;;;9.50;;
17566;SDS011;8901;52.088;5.084;2023-03-25T04:50:44;14.37;;;10.37;;
17566;SDS011;8901;52.088;5.084;2023-03-25T04:53:12;17.53;;;11.00;;
17566;SDS011;8901;52.088;5.084;2023-03-25T04:55:39;18.77;;;12.23;;
17566;SDS011;8901;52.088;5.084;2023-03-25T04:58:12;18.77;;;10.67;;
17566;SDS011;8901;52.088;5.084;2023-03-25T05:00:41;19.40;;;11.70;;
17566;SDS011;8901;52.088;5.084;2023-03-25T05:03:08;15.80;;;10.73;;
17566;SDS011;8901;52.088;5.084;2023-03-25T05:05:36;11.07;;;9.73;;
17566;SDS011;8901;52.088;5.084;2023-03-25T05:08:04;17.13;;;11.13;;
17566;SDS011;8901;52.088;5.084;2023-03-25T05:10:32;18.53;;;11.07;;
17566;SDS011;8901;52.088;5.084;2023-03-25T05:13:00;16.83;;;11.43;;
17566;SDS011;8901;52.088;5.084;2023-03-25T05:15:28;13.40;;;10.53;;
17566;SDS011;8901;52.088;5.084;2023-03-25T05:17:58;20.67;;;13.13;;
17566;SDS011;8901;52.088;5.084;2023-03-25T05:20:26;22.77;;;12.23;;
17566;SDS011;8901;52.088;5.084;2023-03-25T05:22:53;19.93;;;11.53;;
17566;SDS011;8901;52.088;5.084;2023-03-25T05:25:21;16.43;;;11.23;;
17566;SDS011;8901;52.088;5.084;2023-03-25T05:27:48;13.10;;;10.97;;
17566;SDS011;8901;52.088;5.084;2023-03-25T05:30:16;14.07;;;12.10;;
17566;SDS011;8901;52.088;5.084;2023-03-25T05:32:43;18.23;;;12.90;;
17566;SDS011;8901;52.088;5.084;2023-03-25T05:35:16;14.10;;;10.83;;
17566;SDS011;8901;52.088;5.084;2023-03-25T05:37:44;17.47;;;11.20;;
17566;SDS011;8901;52.088;5.084;2023-03-25T05:40:14;19.20;;;11.30;;
17566;SDS011;8901;52.088;5.084;2023-03-25T05:42:43;19.27;;;12.37;;
17566;SDS011;8901;52.088;5.084;2023-03-25T05:45:12;22.00;;;12.57;;
17566;SDS011;8901;52.088;5.084;2023-03-25T05:47:41;25.67;;;14.80;;
17566;SDS011;8901;52.088;5.084;2023-03-25T05:50:09;20.43;;;13.20;;
17566;SDS011;8901;52.088;5.084;2023-03-25T05:52:37;22.77;;;13.60;;
17566;SDS011;8901;52.088;5.084;2023-03-25T05:55:06;19.60;;;12.87;;
17566;SDS011;8901;52.088;5.084;2023-03-25T05:57:33;16.60;;;12.27;;
17566;SDS011;8901;52.088;5.084;2023-03-25T06:00:07;20.70;;;13.73;;
17566;SDS011;8901;52.088;5.084;2023-03-25T06:02:36;18.73;;;13.97;;
17566;SDS011;8901;52.088;5.084;2023-03-25T06:05:04;20.03;;;14.03;;
17566;SDS011;8901;52.088;5.084;2023-03-25T06:07:31;21.33;;;14.40;;
17566;SDS011;8901;52.088;5.084;2023-03-25T06:09:59;19.87;;;14.03;;
17566;SDS011;8901;52.088;5.084;2023-03-25T06:12:27;19.60;;;12.70;;
17566;SDS011;8901;52.088;5.084;2023-03-25T06:14:56;19.13;;;13.70;;
17566;SDS011;8901;52.088;5.084;2023-03-25T06:17:24;15.50;;;13.47;;
17566;SDS011;8901;52.088;5.084;2023-03-25T06:19:51;17.30;;;12.97;;
17566;SDS011;8901;52.088;5.084;2023-03-25T06:22:18;17.97;;;11.50;;
17566;SDS011;8901;52.088;5.084;2023-03-25T06:24:46;16.23;;;11.63;;
17566;SDS011;8901;52.088;5.084;2023-03-25T06:27:15;18.33;;;11.87;;
17566;SDS011;8901;52.088;5.084;2023-03-25T06:29:43;17.73;;;12.43;;
17566;SDS011;8901;52.088;5.084;2023-03-25T06:35:15;20.47;;;13.57;;
17566;SDS011;8901;52.088;5.084;2023-03-25T06:37:51;19.67;;;13.20;;
17566;SDS011;8901;52.088;5.084;2023-03-25T06:40:18;17.67;;;13.50;;
17566;SDS011;8901;52.088;5.084;2023-03-25T06:42:47;15.47;;;12.27;;
17566;SDS011;8901;52.088;5.084;2023-03-25T06:45:15;18.87;;;12.20;;
17566;SDS011;8901;52.088;5.084;2023-03-25T06:47:42;17.70;;;10.97;;
17566;SDS011;8901;52.088;5.084;2023-03-25T06:50:09;21.43;;;13.50;;
17566;SDS011;8901;52.088;5.084;2023-03-25T06:52:37;15.23;;;12.10;;
17566;SDS011;8901;52.088;5.084;2023-03-25T06:55:05;16.23;;;12.00;;
17566;SDS011;8901;52.088;5.084;2023-03-25T06:57:32;20.53;;;12.63;;
17566;SDS011;8901;52.088;5.084;2023-03-25T07:00:01;16.07;;;12.80;;
17566;SDS011;8901;52.088;5.084;2023-03-25T07:02:30;20.10;;;11.37;;
17566;SDS011;8901;52.088;5.084;2023-03-25T07:04:57;16.67;;;12.17;;
17566;SDS011;8901;52.088;5.084;2023-03-25T07:07:25;15.40;;;11.80;;
17566;SDS011;8901;52.088;5.084;2023-03-25T07:09:52;20.03;;;12.73;;
17566;SDS011;8901;52.088;5.084;2023-03-25T07:12:20;17.50;;;12.70;;
17566;SDS011;8901;52.088;5.084;2023-03-25T07:14:49;17.57;;;12.73;;
17566;SDS011;8901;52.088;5.084;2023-03-25T07:17:19;18.20;;;12.40;;
17566;SDS011;8901;52.088;5.084;2023-03-25T07:19:46;19.20;;;11.70;;
17566;SDS011;8901;52.088;5.084;2023-03-25T07:22:14;25.63;;;13.10;;
17566;SDS011;8901;52.088;5.084;2023-03-25T07:24:41;16.87;;;11.20;;
17566;SDS011;8901;52.088;5.084;2023-03-25T07:27:09;18.30;;;10.83;;
17566;SDS011;8901;52.088;5.084;2023-03-25T07:29:36;18.37;;;10.20;;
17566;SDS011;8901;52.088;5.084;2023-03-25T07:32:04;19.43;;;11.40;;
17566;SDS011;8901;52.088;5.084;2023-03-25T07:34:33;15.13;;;10.60;;
17566;SDS011;8901;52.088;5.084;2023-03-25T07:37:00;17.37;;;11.20;;
17566;SDS011;8901;52.088;5.084;2023-03-25T07:39:28;15.60;;;11.23;;
17566;SDS011;8901;52.088;5.084;2023-03-25T07:41:55;18.70;;;10.90;;
17566;SDS011;8901;52.088;5.084;2023-03-25T07:44:23;18.80;;;11.30;;
17566;SDS011;8901;52.088;5.084;2023-03-25T07:46:50;20.93;;;12.03;;
17566;SDS011;8901;52.088;5.084;2023-03-25T07:49:17;22.20;;;12.77;;
17566;SDS011;8901;52.088;5.084;2023-03-25T07:51:46;19.37;;;11.83;;
17566;SDS011;8901;52.088;5.084;2023-03-25T07:54:13;15.87;;;11.17;;
17566;SDS011;8901;52.088;5.084;2023-03-25T07:56:41;20.07;;;11.60;;
17566;SDS011;8901;52.088;5.084;2023-03-25T07:59:08;21.40;;;11.07;;
17566;SDS011;8901;52.088;5.084;2023-03-25T08:01:35;14.37;;;10.50;;
17566;SDS011;8901;52.088;5.084;2023-03-25T08:04:03;16.97;;;12.70;;
17566;SDS011;8901;52.088;5.084;2023-03-25T08:06:30;15.97;;;11.43;;
17566;SDS011;8901;52.088;5.084;2023-03-25T08:08:59;15.00;;;11.03;;
17566;SDS011;8901;52.088;5.084;2023-03-25T08:11:26;17.57;;;11.93;;
17566;SDS011;8901;52.088;5.084;2023-03-25T08:13:54;19.37;;;12.57;;
17566;SDS011;8901;52.088;5.084;2023-03-25T08:16:21;17.73;;;12.00;;
17566;SDS011;8901;52.088;5.084;2023-03-25T08:18:48;19.80;;;11.23;;
17566;SDS011;8901;52.088;5.084;2023-03-25T08:21:17;14.47;;;11.03;;
17566;SDS011;8901;52.088;5.084;2023-03-25T08:23:49;23.00;;;12.83;;
17566;SDS011;8901;52.088;5.084;2023-03-25T08:26:17;18.07;;;12.37;;
17566;SDS011;8901;52.088;5.084;2023-03-25T08:28:45;19.73;;;12.77;;
17566;SDS011;8901;52.088;5.084;2023-03-25T08:31:12;17.20;;;11.73;;
17566;SDS011;8901;52.088;5.084;2023-03-25T08:33:39;17.37;;;11.43;;
17566;SDS011;8901;52.088;5.084;2023-03-25T08:36:07;21.77;;;12.23;;
17566;SDS011;8901;52.088;5.084;2023-03-25T08:38:38;18.77;;;12.37;;
17566;SDS011;8901;52.088;5.084;2023-03-25T08:41:06;19.10;;;10.93;;
17566;SDS011;8901;52.088;5.084;2023-03-25T08:43:34;22.40;;;12.20;;
17566;SDS011;8901;52.088;5.084;2023-03-25T08:46:02;24.17;;;12.20;;
17566;SDS011;8901;52.088;5.084;2023-03-25T08:48:29;20.80;;;11.43;;
17566;SDS011;8901;52.088;5.084;2023-03-25T08:50:56;17.93;;;11.63;;
17566;SDS011;8901;52.088;5.084;2023-03-25T08:53:25;20.80;;;12.00;;
17566;SDS011;8901;52.088;5.084;2023-03-25T08:55:52;15.43;;;11.80;;
17566;SDS011;8901;52.088;5.084;2023-03-25T08:58:19;19.50;;;12.57;;
17566;SDS011;8901;52.088;5.084;2023-03-25T09:00:49;18.67;;;11.40;;
17566;SDS011;8901;52.088;5.084;2023-03-25T09:03:18;22.30;;;11.90;;
17566;SDS011;8901;52.088;5.084;2023-03-25T09:05:46;19.27;;;10.17;;
17566;SDS011;8901;52.088;5.084;2023-03-25T09:08:14;19.80;;;12.20;;
17566;SDS011;8901;52.088;5.084;2023-03-25T09:10:42;17.40;;;8.13;;
17566;SDS011;8901;52.088;5.084;2023-03-25T09:13:09;19.67;;;9.33;;
17566;SDS011;8901;52.088;5.084;2023-03-25T09:15:36;23.23;;;9.30;;
17566;SDS011;8901;52.088;5.084;2023-03-25T09:18:05;28.10;;;9.00;;
17566;SDS011;8901;52.088;5.084;2023-03-25T09:20:32;18.33;;;8.20;;
17566;SDS011;8901;52.088;5.084;2023-03-25T09:23:00;18.90;;;9.60;;
17566;SDS011;8901;52.088;5.084;2023-03-25T09:25:27;24.03;;;10.57;;
17566;SDS011;8901;52.088;5.084;2023-03-25T09:27:54;19.20;;;9.73;;
17566;SDS011;8901;52.088;5.084;2023-03-25T09:30:21;17.00;;;10.37;;
17566;SDS011;8901;52.088;5.084;2023-03-25T09:32:49;15.03;;;10.23;;
17566;SDS011;8901;52.088;5.084;2023-03-25T09:35:17;16.33;;;10.87;;
17566;SDS011;8901;52.088;5.084;2023-03-25T09:37:45;29.53;;;12.23;;
17566;SDS011;8901;52.088;5.084;2023-03-25T09:40:12;18.30;;;10.67;;
17566;SDS011;8901;52.088;5.084;2023-03-25T09:42:43;16.63;;;10.33;;
17566;SDS011;8901;52.088;5.084;2023-03-25T09:45:16;17.97;;;10.53;;
17566;SDS011;8901;52.088;5.084;2023-03-25T09:47:49;19.03;;;11.40;;
17566;SDS011;8901;52.088;5.084;2023-03-25T09:50:20;17.27;;;11.00;;
17566;SDS011;8901;52.088;5.084;2023-03-25T09:52:50;21.90;;;11.83;;
17566;SDS011;8901;52.088;5.084;2023-03-25T09:55:21;20.77;;;10.07;;
17566;SDS011;8901;52.088;5.084;2023-03-25T09:57:50;18.97;;;12.20;;
17566;SDS011;8901;52.088;5.084;2023-03-25T10:00:21;19.43;;;11.63;;
17566;SDS011;8901;52.088;5.084;2023-03-25T10:02:50;17.47;;;11.07;;
17566;SDS011;8901;52.088;5.084;2023-03-25T10:05:24;17.07;;;11.87;;
17566;SDS011;8901;52.088;5.084;2023-03-25T10:08:00;17.70;;;11.27;;
17566;SDS011;8901;52.088;5.084;2023-03-25T10:10:31;23.57;;;11.97;;
17566;SDS011;8901;52.088;5.084;2023-03-25T10:13:03;18.00;;;10.00;;
17566;SDS011;8901;52.088;5.084;2023-03-25T10:15:34;16.17;;;10.53;;
17566;SDS011;8901;52.088;5.084;2023-03-25T10:18:04;14.10;;;10.53;;
17566;SDS011;8901;52.088;5.084;2023-03-25T10:20:40;35.10;;;12.77;;
17566;SDS011;8901;52.088;5.084;2023-03-25T10:23:17;18.43;;;11.90;;
17566;SDS011;8901;52.088;5.084;2023-03-25T10:25:49;18.73;;;12.43;;
17566;SDS011;8901;52.088;5.084;2023-03-25T10:28:18;25.50;;;10.83;;
17566;SDS011;8901;52.088;5.084;2023-03-25T10:30:47;25.43;;;11.63;;
17566;SDS011;8901;52.088;5.084;2023-03-25T10:33:15;18.97;;;11.03;;
17566;SDS011;8901;52.088;5.084;2023-03-25T10:35:46;12.77;;;9.93;;
17566;SDS011;8901;52.088;5.084;2023-03-25T10:38:14;17.60;;;11.60;;
17566;SDS011;8901;52.088;5.084;2023-03-25T10:40:45;22.17;;;11.70;;
17566;SDS011;8901;52.088;5.084;2023-03-25T10:43:14;19.57;;;13.07;;
17566;SDS011;8901;52.088;5.084;2023-03-25T10:45:44;17.67;;;11.80;;
17566;SDS011;8901;52.088;5.084;2023-03-25T10:48:13;16.77;;;10.93;;
17566;SDS011;8901;52.088;5.084;2023-03-25T10:50:42;19.53;;;12.07;;
17566;SDS011;8901;52.088;5.084;2023-03-25T10:53:13;17.47;;;13.50;;
17566;SDS011;8901;52.088;5.084;2023-03-25T10:55:43;15.60;;;12.03;;
17566;SDS011;8901;52.088;5.084;2023-03-25T10:58:29;18.37;;;12.30;;
17566;SDS011;8901;52.088;5.084;2023-03-25T11:00:57;13.90;;;10.90;;
17566;SDS011;8901;52.088;5.084;2023-03-25T11:03:25;17.47;;;11.70;;
17566;SDS011;8901;52.088;5.084;2023-03-25T11:05:55;20.70;;;12.37;;
17566;SDS011;8901;52.088;5.084;2023-03-25T11:11:25;15.33;;;11.90;;
17566;SDS011;8901;52.088;5.084;2023-03-25T11:13:57;15.93;;;12.90;;
17566;SDS011;8901;52.088;5.084;2023-03-25T11:16:24;15.50;;;11.53;;
17566;SDS011;8901;52.088;5.084;2023-03-25T11:18:52;16.70;;;11.90;;
17566;SDS011;8901;52.088;5.084;2023-03-25T11:24:06;15.63;;;10.93;;
17566;SDS011;8901;52.088;5.084;2023-03-25T11:26:36;13.30;;;11.60;;
17566;SDS011;8901;52.088;5.084;2023-03-25T11:29:05;14.27;;;10.73;;
17566;SDS011;8901;52.088;5.084;2023-03-25T11:31:33;19.23;;;11.43;;
17566;SDS011;8901;52.088;5.084;2023-03-25T11:34:05;17.83;;;12.83;;
17566;SDS011;8901;52.088;5.084;2023-03-25T11:36:34;14.93;;;11.93;;
17566;SDS011;8901;52.088;5.084;2023-03-25T11:39:08;16.87;;;12.87;;
17566;SDS011;8901;52.088;5.084;2023-03-25T11:41:44;14.10;;;11.83;;
17566;SDS011;8901;52.088;5.084;2023-03-25T11:44:17;18.57;;;12.47;;
17566;SDS011;8901;52.088;5.084;2023-03-25T11:46:47;15.63;;;11.23;;
17566;SDS011;8901;52.088;5.084;2023-03-25T11:49:17;17.37;;;12.47;;
17566;SDS011;8901;52.088;5.084;2023-03-25T11:51:45;16.33;;;12.50;;
17566;SDS011;8901;52.088;5.084;2023-03-25T11:54:13;15.57;;;12.07;;
17566;SDS011;8901;52.088;5.084;2023-03-25T11:56:42;12.90;;;10.93;;
17566;SDS011;8901;52.088;5.084;2023-03-25T11:59:18;16.40;;;12.87;;
17566;SDS011;8901;52.088;5.084;2023-03-25T12:01:48;14.97;;;12.63;;
17566;SDS011;8901;52.088;5.084;2023-03-25T12:04:17;17.00;;;12.77;;
17566;SDS011;8901;52.088;5.084;2023-03-25T12:06:51;15.30;;;13.23;;
17566;SDS011;8901;52.088;5.084;2023-03-25T12:09:18;17.23;;;14.30;;
17566;SDS011;8901;52.088;5.084;2023-03-25T12:11:47;14.53;;;12.57;;
17566;SDS011;8901;52.088;5.084;2023-03-25T12:14:22;14.47;;;12.67;;
17566;SDS011;8901;52.088;5.084;2023-03-25T12:16:53;16.33;;;13.37;;
17566;SDS011;8901;52.088;5.084;2023-03-25T12:19:24;17.53;;;13.40;;
17566;SDS011;8901;52.088;5.084;2023-03-25T12:22:00;18.33;;;14.57;;
17566;SDS011;8901;52.088;5.084;2023-03-25T12:24:33;15.90;;;12.90;;
17566;SDS011;8901;52.088;5.084;2023-03-25T12:27:13;16.73;;;14.63;;
17566;SDS011;8901;52.088;5.084;2023-03-25T12:29:48;14.50;;;12.37;;
17566;SDS011;8901;52.088;5.084;2023-03-25T12:32:19;14.07;;;12.40;;
17566;SDS011;8901;52.088;5.084;2023-03-25T12:34:52;18.83;;;15.07;;
17566;SDS011;8901;52.088;5.084;2023-03-25T12:37:26;14.23;;;12.93;;
17566;SDS011;8901;52.088;5.084;2023-03-25T12:40:01;16.80;;;13.07;;
17566;SDS011;8901;52.088;5.084;2023-03-25T12:42:35;16.23;;;14.20;;
17566;SDS011;8901;52.088;5.084;2023-03-25T12:47:50;19.57;;;14.43;;
17566;SDS011;8901;52.088;5.084;2023-03-25T12:50:29;18.60;;;14.73;;
17566;SDS011;8901;52.088;5.084;2023-03-25T12:53:02;14.23;;;11.60;;
17566;SDS011;8901;52.088;5.084;2023-03-25T12:55:40;22.13;;;14.20;;
17566;SDS011;8901;52.088;5.084;2023-03-25T12:58:21;22.90;;;15.17;;
17566;SDS011;8901;52.088;5.084;2023-03-25T13:00:51;18.97;;;13.13;;
17566;SDS011;8901;52.088;5.084;2023-03-25T13:03:38;17.03;;;12.20;;
17566;SDS011;8901;52.088;5.084;2023-03-25T13:06:11;19.27;;;14.03;;
17566;SDS011;8901;52.088;5.084;2023-03-25T13:08:43;16.50;;;14.47;;
17566;SDS011;8901;52.088;5.084;2023-03-25T13:11:13;21.37;;;15.40;;
17566;SDS011;8901;52.088;5.084;2023-03-25T13:13:41;13.50;;;12.07;;
17566;SDS011;8901;52.088;5.084;2023-03-25T13:16:10;18.63;;;13.23;;
17566;SDS011;8901;52.088;5.084;2023-03-25T13:18:42;17.13;;;14.07;;
17566;SDS011;8901;52.088;5.084;2023-03-25T13:21:12;15.57;;;13.80;;
17566;SDS011;8901;52.088;5.084;2023-03-25T13:23:42;16.40;;;13.60;;
17566;SDS011;8901;52.088;5.084;2023-03-25T13:26:11;18.23;;;14.20;;
17566;SDS011;8901;52.088;5.084;2023-03-25T13:28:40;17.47;;;14.83;;
17566;SDS011;8901;52.088;5.084;2023-03-25T13:31:13;14.53;;;12.67;;
17566;SDS011;8901;52.088;5.084;2023-03-25T13:33:42;15.00;;;11.47;;
17566;SDS011;8901;52.088;5.084;2023-03-25T13:36:13;13.10;;;10.57;;
17566;SDS011;8901;52.088;5.084;2023-03-25T13:38:45;15.50;;;12.17;;
17566;SDS011;8901;52.088;5.084;2023-03-25T13:41:15;17.67;;;14.07;;
17566;SDS011;8901;52.088;5.084;2023-03-25T13:43:46;16.33;;;11.67;;
17566;SDS011;8901;52.088;5.084;2023-03-25T13:46:18;20.17;;;14.10;;
17566;SDS011;8901;52.088;5.084;2023-03-25T13:48:49;16.20;;;13.13;;
17566;SDS011;8901;52.088;5.084;2023-03-25T13:51:18;16.73;;;12.33;;
17566;SDS011;8901;52.088;5.084;2023-03-25T13:53:46;14.80;;;9.70;;
17566;SDS011;8901;52.088;5.084;2023-03-25T13:59:15;9.47;;;8.27;;
17566;SDS011;8901;52.088;5.084;2023-03-25T14:01:55;9.20;;;7.23;;
17566;SDS011;8901;52.088;5.084;2023-03-25T14:04:46;7.53;;;6.70;;
17566;SDS011;8901;52.088;5.084;2023-03-25T14:12:40;8.07;;;7.27;;
17566;SDS011;8901;52.088;5.084;2023-03-25T14:15:10;9.10;;;7.10;;
17566;SDS011;8901;52.088;5.084;2023-03-25T14:17:39;14.00;;;9.30;;
17566;SDS011;8901;52.088;5.084;2023-03-25T14:20:11;11.93;;;8.20;;
17566;SDS011;8901;52.088;5.084;2023-03-25T14:22:44;16.57;;;8.70;;
17566;SDS011;8901;52.088;5.084;2023-03-25T14:25:19;14.90;;;9.03;;
17566;SDS011;8901;52.088;5.084;2023-03-25T14:27:47;12.47;;;8.00;;
17566;SDS011;8901;52.088;5.084;2023-03-25T14:30:17;11.30;;;8.63;;
17566;SDS011;8901;52.088;5.084;2023-03-25T14:32:45;15.13;;;8.83;;
17566;SDS011;8901;52.088;5.084;2023-03-25T14:40:46;14.57;;;9.50;;
17566;SDS011;8901;52.088;5.084;2023-03-25T14:43:19;17.90;;;11.07;;
17566;SDS011;8901;52.088;5.084;2023-03-25T14:45:51;12.00;;;10.20;;
17566;SDS011;8901;52.088;5.084;2023-03-25T14:48:24;16.63;;;12.57;;
17566;SDS011;8901;52.088;5.084;2023-03-25T14:51:14;12.97;;;10.77;;
17566;SDS011;8901;52.088;5.084;2023-03-25T14:53:55;12.93;;;11.50;;
17566;SDS011;8901;52.088;5.084;2023-03-25T14:56:32;14.67;;;11.53;;
17566;SDS011;8901;52.088;5.084;2023-03-25T14:59:03;13.07;;;11.77;;
17566;SDS011;8901;52.088;5.084;2023-03-25T15:01:34;12.90;;;11.63;;
17566;SDS011;8901;52.088;5.084;2023-03-25T15:04:12;15.30;;;12.33;;
17566;SDS011;8901;52.088;5.084;2023-03-25T15:06:41;14.20;;;10.93;;
17566;SDS011;8901;52.088;5.084;2023-03-25T15:09:09;17.07;;;12.30;;
17566;SDS011;8901;52.088;5.084;2023-03-25T15:11:39;16.80;;;12.40;;
17566;SDS011;8901;52.088;5.084;2023-03-25T15:14:08;15.83;;;11.90;;
17566;SDS011;8901;52.088;5.084;2023-03-25T15:16:54;17.70;;;12.47;;
17566;SDS011;8901;52.088;5.084;2023-03-25T15:19:21;16.00;;;12.33;;
17566;SDS011;8901;52.088;5.084;2023-03-25T15:24:35;19.50;;;12.20;;
17566;SDS011;8901;52.088;5.084;2023-03-25T15:27:09;18.57;;;13.67;;
17566;SDS011;8901;52.088;5.084;2023-03-25T15:29:46;14.50;;;12.13;;
17566;SDS011;8901;52.088;5.084;2023-03-25T15:32:31;15.37;;;13.20;;
17566;SDS011;8901;52.088;5.084;2023-03-25T15:37:53;13.77;;;12.30;;
17566;SDS011;8901;52.088;5.084;2023-03-25T15:40:25;14.97;;;12.87;;
17566;SDS011;8901;52.088;5.084;2023-03-25T15:45:56;17.10;;;13.67;;
17566;SDS011;8901;52.088;5.084;2023-03-25T15:48:33;14.83;;;13.33;;
17566;SDS011;8901;52.088;5.084;2023-03-25T15:51:22;14.27;;;12.30;;
17566;SDS011;8901;52.088;5.084;2023-03-25T15:53:55;12.93;;;11.80;;
17566;SDS011;8901;52.088;5.084;2023-03-25T15:56:26;13.37;;;10.90;;
17566;SDS011;8901;52.088;5.084;2023-03-25T15:58:56;13.37;;;11.07;;
17566;SDS011;8901;52.088;5.084;2023-03-25T16:01:27;14.10;;;11.60;;
17566;SDS011;8901;52.088;5.084;2023-03-25T16:03:56;16.77;;;11.40;;
17566;SDS011;8901;52.088;5.084;2023-03-25T16:06:24;18.17;;;12.17;;
17566;SDS011;8901;52.088;5.084;2023-03-25T16:08:52;15.27;;;11.03;;
17566;SDS011;8901;52.088;5.084;2023-03-25T16:11:25;18.70;;;12.37;;